createdAt,value
2019-03-18T00:02:59.204Z,5.50
2019-03-18T00:07:53.793Z,5.50
2019-03-18T00:12:48.442Z,5.40
2019-03-18T00:17:43.113Z,5.40
2019-03-18T00:22:37.693Z,5.30
2019-03-18T00:27:32.301Z,5.30
2019-03-18T00:32:26.887Z,5.40
2019-03-18T00:37:21.479Z,5.30
2019-03-18T00:42:16.070Z,5.20
2019-03-18T00:47:10.666Z,5.20
2019-03-18T00:52:05.317Z,5.20
2019-03-18T00:56:59.911Z,5.20
2019-03-18T01:01:54.504Z,5.10
2019-03-18T01:06:49.107Z,5.10
2019-03-18T01:11:43.696Z,5.10
2019-03-18T01:16:38.304Z,5.00
2019-03-18T01:21:32.883Z,5.00
2019-03-18T01:26:27.479Z,4.90
2019-03-18T01:31:22.074Z,4.90
2019-03-18T01:36:16.655Z,4.90
2019-03-18T01:41:11.252Z,4.80
2019-03-18T01:46:05.913Z,4.80
2019-03-18T01:51:00.519Z,4.90
2019-03-18T01:55:55.116Z,5.10
2019-03-18T02:00:49.700Z,5.10
2019-03-18T02:05:44.289Z,5.00
2019-03-18T02:10:38.888Z,5.00
2019-03-18T02:15:33.480Z,5.00
2019-03-18T02:20:28.214Z,5.10
2019-03-18T02:25:22.812Z,5.20
2019-03-18T02:30:19.379Z,5.30
2019-03-18T02:35:14.038Z,5.30
2019-03-18T02:40:11.723Z,5.30
2019-03-18T02:45:11.883Z,5.40
2019-03-18T02:50:08.537Z,5.50
2019-03-18T02:55:03.254Z,5.50
2019-03-18T02:59:57.844Z,5.60
2019-03-18T03:04:52.447Z,5.60
2019-03-18T03:09:47.084Z,5.60
2019-03-18T03:14:41.678Z,5.60
2019-03-18T03:19:36.267Z,5.50
2019-03-18T03:24:30.881Z,5.50
2019-03-18T03:29:25.562Z,5.40
2019-03-18T03:34:20.160Z,5.40
2019-03-18T03:39:14.763Z,5.40
2019-03-18T03:44:09.343Z,5.50
2019-03-18T03:49:04.010Z,5.30
2019-03-18T03:53:58.672Z,5.30
2019-03-18T03:58:53.384Z,5.20
2019-03-18T04:03:48.115Z,5.20
2019-03-18T04:08:42.775Z,5.30
2019-03-18T04:13:37.368Z,5.30
2019-03-18T04:18:31.944Z,5.20
2019-03-18T04:23:26.551Z,5.20
2019-03-18T04:28:21.151Z,5.10
2019-03-18T04:33:15.728Z,5.00
2019-03-18T04:38:10.324Z,5.00
2019-03-18T04:43:04.911Z,5.00
2019-03-18T04:47:59.537Z,5.10
2019-03-18T04:52:54.104Z,5.20
2019-03-18T04:57:48.700Z,5.10
2019-03-18T05:02:43.293Z,5.20
2019-03-18T05:07:37.966Z,5.30
2019-03-18T05:12:32.557Z,5.30
2019-03-18T05:17:27.227Z,5.40
2019-03-18T05:22:21.815Z,5.40
2019-03-18T05:27:16.407Z,5.40
2019-03-18T05:32:11.016Z,5.40
2019-03-18T05:37:05.611Z,5.50
2019-03-18T05:42:00.192Z,5.40
2019-03-18T05:46:54.799Z,5.50
2019-03-18T05:51:49.394Z,5.50
2019-03-18T05:56:44.081Z,5.40
2019-03-18T06:01:38.663Z,5.40
2019-03-18T06:06:33.243Z,5.40
2019-03-18T06:11:27.856Z,5.40
2019-03-18T06:16:22.459Z,5.50
2019-03-18T06:21:17.071Z,5.10
2019-03-18T06:26:11.639Z,4.90
2019-03-18T06:31:06.229Z,4.80
2019-03-18T06:36:00.838Z,4.70
2019-03-18T06:40:55.444Z,4.80
2019-03-18T06:45:50.028Z,4.80
2019-03-18T06:50:44.724Z,4.90
2019-03-18T06:55:42.312Z,5.20
2019-03-18T07:00:37.250Z,5.50
2019-03-18T07:05:32.040Z,5.60
2019-03-18T07:10:27.048Z,5.80
2019-03-18T07:15:21.974Z,5.90
2019-03-18T07:20:16.974Z,6.10
2019-03-18T07:25:12.676Z,6.00
2019-03-18T07:30:16.323Z,5.90
2019-03-18T07:35:11.406Z,6.10
2019-03-18T07:40:15.611Z,5.90
2019-03-18T07:45:15.461Z,5.90
2019-03-18T07:50:14.617Z,5.90
2019-03-18T07:55:10.412Z,6.00
2019-03-18T08:00:12.437Z,6.10
2019-03-18T08:05:09.978Z,6.30
2019-03-18T08:10:07.118Z,6.30
2019-03-18T08:15:01.714Z,6.40
2019-03-18T08:19:56.619Z,6.50
2019-03-18T08:24:51.223Z,6.50
2019-03-18T08:29:45.834Z,6.70
2019-03-18T08:34:40.419Z,7.10
2019-03-18T08:39:35.199Z,7.50
2019-03-18T08:44:29.801Z,7.90
2019-03-18T08:49:24.403Z,8.10
2019-03-18T08:54:19.016Z,8.00
2019-03-18T08:59:13.599Z,7.90
2019-03-18T09:04:11.712Z,8.10
2019-03-18T09:09:14.424Z,8.10
2019-03-18T09:14:10.652Z,8.30
2019-03-18T09:19:09.000Z,8.50
2019-03-18T09:24:02.873Z,8.40
2019-03-18T09:28:57.594Z,8.20
2019-03-18T09:33:52.325Z,8.10
2019-03-18T09:38:47.008Z,8.00
2019-03-18T09:43:42.262Z,8.00
2019-03-18T09:48:38.618Z,7.80
2019-03-18T09:53:33.250Z,7.60
2019-03-18T09:58:27.925Z,7.70
2019-03-18T10:03:22.857Z,7.90
2019-03-18T10:08:17.619Z,8.30
2019-03-18T10:13:12.230Z,8.30
2019-03-18T10:18:07.003Z,8.50
2019-03-18T10:23:02.968Z,8.90
2019-03-18T10:27:57.925Z,9.00
2019-03-18T10:32:52.541Z,9.30
2019-03-18T10:37:47.756Z,9.50
2019-03-18T10:42:45.086Z,9.30
2019-03-18T10:47:39.700Z,9.50
2019-03-18T10:52:34.616Z,9.60
2019-03-18T10:57:29.240Z,10.00
2019-03-18T11:02:23.860Z,10.20
2019-03-18T11:07:18.487Z,10.00
2019-03-18T11:12:13.088Z,9.70
2019-03-18T11:17:07.705Z,9.40
2019-03-18T11:22:04.782Z,9.20
2019-03-18T11:26:59.460Z,9.20
2019-03-18T11:31:54.292Z,8.90
2019-03-18T11:36:48.867Z,9.10
2019-03-18T11:41:43.509Z,9.50
2019-03-18T11:46:40.470Z,9.50
2019-03-18T11:51:35.390Z,9.40
2019-03-18T11:56:30.589Z,9.20
2019-03-18T12:01:25.310Z,8.90
2019-03-18T12:06:19.933Z,8.90
2019-03-18T12:11:14.999Z,9.00
2019-03-18T12:16:10.134Z,9.30
2019-03-18T12:21:05.354Z,9.70
2019-03-18T12:26:00.072Z,9.60
2019-03-18T12:30:54.677Z,9.30
2019-03-18T12:35:55.410Z,9.40
2019-03-18T12:40:54.955Z,9.30
2019-03-18T12:45:49.617Z,9.40
2019-03-18T12:50:55.680Z,9.40
2019-03-18T12:55:40.631Z,9.50
2019-03-18T13:00:37.580Z,9.60
2019-03-18T13:05:32.456Z,9.70
2019-03-18T13:10:27.377Z,9.60
2019-03-18T13:15:22.667Z,9.60
2019-03-18T13:20:22.554Z,9.90
2019-03-18T13:25:17.229Z,10.00
2019-03-18T13:30:18.183Z,10.30
2019-03-18T13:35:13.010Z,10.10
2019-03-18T13:40:14.543Z,9.80
2019-03-18T13:45:18.793Z,9.70
2019-03-18T13:50:19.427Z,9.60
2019-03-18T13:55:14.633Z,10.00
2019-03-18T14:00:20.997Z,10.20
2019-03-18T14:05:16.843Z,10.00
2019-03-18T14:10:17.847Z,9.60
2019-03-18T14:15:19.080Z,9.30
2019-03-18T14:20:19.941Z,7.90
2019-03-18T14:25:15.157Z,7.30
2019-03-18T14:30:23.855Z,7.40
2019-03-18T14:35:21.275Z,7.60
2019-03-18T14:40:20.980Z,7.80
2019-03-18T14:45:21.366Z,8.30
2019-03-18T14:50:17.663Z,8.80
2019-03-18T14:55:14.785Z,9.00
2019-03-18T15:00:27.195Z,9.00
2019-03-18T15:05:21.933Z,8.80
2019-03-18T15:10:23.476Z,8.90
2019-03-18T15:15:19.859Z,9.00
2019-03-18T15:20:17.312Z,9.00
2019-03-18T15:25:16.222Z,9.00
2019-03-18T15:30:20.237Z,9.30
2019-03-18T15:35:16.990Z,9.60
2019-03-18T15:40:27.284Z,10.00
2019-03-18T15:45:23.276Z,10.20
2019-03-18T15:50:26.659Z,10.20
2019-03-18T15:55:23.857Z,10.00
2019-03-18T16:00:29.039Z,9.90
2019-03-18T16:05:23.718Z,9.80
2019-03-18T16:10:20.248Z,9.60
2019-03-18T16:15:16.910Z,9.40
2019-03-18T16:20:18.418Z,9.20
2019-03-18T16:25:13.644Z,8.70
2019-03-18T16:30:22.260Z,8.10
2019-03-18T16:35:18.090Z,7.90
2019-03-18T16:40:16.586Z,7.80
2019-03-18T16:45:17.272Z,7.80
2019-03-18T16:50:21.075Z,7.80
2019-03-18T16:55:15.879Z,7.80
2019-03-18T17:00:17.579Z,7.70
2019-03-18T17:05:12.321Z,7.50
2019-03-18T17:10:15.683Z,7.20
2019-03-18T17:15:13.505Z,6.80
2019-03-18T17:20:12.041Z,6.40
2019-03-18T17:25:11.324Z,6.00
2019-03-18T17:30:13.162Z,5.70
2019-03-18T17:35:08.743Z,5.60
2019-03-18T17:40:03.918Z,5.50
2019-03-18T17:44:58.538Z,5.60
2019-03-18T17:49:54.887Z,5.50
2019-03-18T17:54:49.487Z,5.40
2019-03-18T17:59:44.098Z,5.30
2019-03-18T18:04:38.760Z,5.30
2019-03-18T18:09:33.360Z,5.30
2019-03-18T18:14:27.939Z,5.20
2019-03-18T18:19:22.531Z,5.30
2019-03-18T18:24:17.127Z,5.40
2019-03-18T18:29:11.721Z,5.40
2019-03-18T18:34:06.317Z,5.40
2019-03-18T18:39:00.916Z,5.50
2019-03-18T18:43:55.499Z,5.60
2019-03-18T18:48:50.095Z,5.50
2019-03-18T18:53:44.710Z,5.50
2019-03-18T18:58:39.304Z,5.50
2019-03-18T19:03:33.929Z,5.40
2019-03-18T19:08:28.539Z,5.50
2019-03-18T19:13:23.147Z,5.60
2019-03-18T19:18:17.746Z,5.70
2019-03-18T19:23:12.341Z,5.60
2019-03-18T19:28:07.987Z,5.40
2019-03-18T19:33:02.594Z,5.30
2019-03-18T19:37:57.194Z,5.30
2019-03-18T19:42:51.936Z,5.30
2019-03-18T19:47:46.605Z,5.30
2019-03-18T19:52:41.266Z,5.20
2019-03-18T19:57:35.903Z,4.90
2019-03-18T20:02:30.499Z,4.80
2019-03-18T20:07:25.098Z,4.60
2019-03-18T20:12:19.673Z,4.40
2019-03-18T20:17:14.279Z,4.40
2019-03-18T20:22:08.877Z,4.20
2019-03-18T20:27:03.463Z,4.10
2019-03-18T20:31:58.924Z,4.10
2019-03-18T20:36:53.503Z,4.00
2019-03-18T20:41:48.133Z,3.90
2019-03-18T20:46:42.825Z,3.90
2019-03-18T20:51:37.432Z,3.80
2019-03-18T20:56:32.017Z,3.70
2019-03-18T21:01:26.628Z,3.70
2019-03-18T21:06:21.205Z,3.70
2019-03-18T21:11:15.803Z,3.70
2019-03-18T21:16:10.412Z,3.80
2019-03-18T21:21:05.067Z,3.70
2019-03-18T21:25:59.673Z,3.70
2019-03-18T21:30:54.254Z,3.50
2019-03-18T21:35:48.855Z,3.40
2019-03-18T21:40:43.498Z,3.30
2019-03-18T21:45:38.116Z,3.20
2019-03-18T21:50:32.694Z,3.20
2019-03-18T21:55:27.352Z,3.20
2019-03-18T22:00:23.345Z,3.30
2019-03-18T22:05:18.088Z,3.20
2019-03-18T22:10:18.325Z,3.10
2019-03-18T22:15:15.162Z,3.20
2019-03-18T22:20:20.315Z,3.10
2019-03-18T22:25:16.009Z,3.10
2019-03-18T22:30:14.629Z,3.00
2019-03-18T22:35:11.020Z,3.10
2019-03-18T22:40:14.898Z,3.00
2019-03-18T22:45:15.219Z,2.80
2019-03-18T22:50:14.553Z,2.60
2019-03-18T22:55:12.515Z,2.60
2019-03-18T23:00:21.490Z,2.60
2019-03-18T23:05:16.687Z,2.60
2019-03-18T23:10:11.511Z,2.50
2019-03-18T23:15:09.167Z,2.50
2019-03-18T23:20:04.554Z,2.40
2019-03-18T23:25:07.082Z,2.30
2019-03-18T23:29:55.474Z,2.30
2019-03-18T23:34:50.067Z,2.30
2019-03-18T23:39:44.668Z,2.30
2019-03-18T23:44:39.264Z,2.30
2019-03-18T23:49:33.884Z,2.30
2019-03-18T23:54:28.539Z,2.20
2019-03-18T23:59:23.147Z,2.20
